sensor_id;sensor_type;location;lat;lon;timestamp;P1;durP1;ratioP1;P2;durP2;ratioP2
76848;SDS011;65814;51.134;16.980;2024-01-30T00:00:58;11.60;;;5.60;;
76848;SDS011;65814;51.134;16.980;2024-01-30T00:03:45;10.10;;;4.90;;
76848;SDS011;65814;51.134;16.980;2024-01-30T00:06:14;7.80;;;5.00;;
76848;SDS011;65814;51.134;16.980;2024-01-30T00:08:42;7.30;;;5.20;;
76848;SDS011;65814;51.134;16.980;2024-01-30T00:11:10;9.20;;;6.00;;
76848;SDS011;65814;51.134;16.980;2024-01-30T00:13:38;10.60;;;5.20;;
76848;SDS011;65814;51.134;16.980;2024-01-30T00:16:06;11.40;;;5.60;;
76848;SDS011;65814;51.134;16.980;2024-01-30T00:18:36;9.70;;;5.70;;
76848;SDS011;65814;51.134;16.980;2024-01-30T00:21:04;8.10;;;5.30;;
76848;SDS011;65814;51.134;16.980;2024-01-30T00:23:32;11.20;;;5.80;;
76848;SDS011;65814;51.134;16.980;2024-01-30T00:26:00;9.50;;;5.50;;
76848;SDS011;65814;51.134;16.980;2024-01-30T00:28:29;10.40;;;5.40;;
76848;SDS011;65814;51.134;16.980;2024-01-30T00:30:57;10.10;;;6.20;;
76848;SDS011;65814;51.134;16.980;2024-01-30T00:33:24;8.40;;;5.10;;
76848;SDS011;65814;51.134;16.980;2024-01-30T00:35:53;10.00;;;5.40;;
76848;SDS011;65814;51.134;16.980;2024-01-30T00:38:21;12.00;;;6.00;;
76848;SDS011;65814;51.134;16.980;2024-01-30T00:40:48;9.90;;;6.90;;
76848;SDS011;65814;51.134;16.980;2024-01-30T00:43:17;10.00;;;5.90;;
76848;SDS011;65814;51.134;16.980;2024-01-30T00:45:45;10.40;;;5.40;;
76848;SDS011;65814;51.134;16.980;2024-01-30T00:48:14;11.00;;;6.00;;
76848;SDS011;65814;51.134;16.980;2024-01-30T00:50:42;7.30;;;5.40;;
76848;SDS011;65814;51.134;16.980;2024-01-30T00:53:12;8.00;;;5.50;;
76848;SDS011;65814;51.134;16.980;2024-01-30T00:55:40;9.40;;;5.70;;
76848;SDS011;65814;51.134;16.980;2024-01-30T00:58:12;9.00;;;5.30;;
76848;SDS011;65814;51.134;16.980;2024-01-30T01:00:40;7.70;;;4.80;;
76848;SDS011;65814;51.134;16.980;2024-01-30T01:03:08;8.60;;;5.80;;
76848;SDS011;65814;51.134;16.980;2024-01-30T01:05:36;9.30;;;5.40;;
76848;SDS011;65814;51.134;16.980;2024-01-30T01:08:04;9.20;;;6.20;;
76848;SDS011;65814;51.134;16.980;2024-01-30T01:10:33;7.30;;;5.10;;
76848;SDS011;65814;51.134;16.980;2024-01-30T01:13:01;11.10;;;6.00;;
76848;SDS011;65814;51.134;16.980;2024-01-30T01:15:29;10.80;;;5.60;;
76848;SDS011;65814;51.134;16.980;2024-01-30T01:17:57;9.20;;;5.70;;
76848;SDS011;65814;51.134;16.980;2024-01-30T01:20:28;9.90;;;5.60;;
76848;SDS011;65814;51.134;16.980;2024-01-30T01:22:55;11.20;;;6.30;;
76848;SDS011;65814;51.134;16.980;2024-01-30T01:25:25;13.40;;;7.80;;
76848;SDS011;65814;51.134;16.980;2024-01-30T01:27:53;12.00;;;6.80;;
76848;SDS011;65814;51.134;16.980;2024-01-30T01:30:21;9.10;;;5.80;;
76848;SDS011;65814;51.134;16.980;2024-01-30T01:32:49;10.40;;;6.20;;
76848;SDS011;65814;51.134;16.980;2024-01-30T01:35:23;10.80;;;6.20;;
76848;SDS011;65814;51.134;16.980;2024-01-30T01:37:55;9.20;;;6.20;;
76848;SDS011;65814;51.134;16.980;2024-01-30T01:40:27;10.70;;;5.80;;
76848;SDS011;65814;51.134;16.980;2024-01-30T01:42:55;11.10;;;6.80;;
76848;SDS011;65814;51.134;16.980;2024-01-30T01:45:23;12.20;;;6.00;;
76848;SDS011;65814;51.134;16.980;2024-01-30T01:47:55;7.00;;;5.50;;
76848;SDS011;65814;51.134;16.980;2024-01-30T01:50:23;11.50;;;6.20;;
76848;SDS011;65814;51.134;16.980;2024-01-30T01:52:52;14.40;;;6.70;;
76848;SDS011;65814;51.134;16.980;2024-01-30T01:55:22;11.90;;;6.60;;
76848;SDS011;65814;51.134;16.980;2024-01-30T01:57:53;9.30;;;6.30;;
76848;SDS011;65814;51.134;16.980;2024-01-30T02:00:22;9.80;;;6.40;;
76848;SDS011;65814;51.134;16.980;2024-01-30T02:02:51;11.70;;;5.80;;
76848;SDS011;65814;51.134;16.980;2024-01-30T02:05:21;10.20;;;5.80;;
76848;SDS011;65814;51.134;16.980;2024-01-30T02:07:50;11.00;;;6.50;;
76848;SDS011;65814;51.134;16.980;2024-01-30T02:10:18;10.40;;;6.40;;
76848;SDS011;65814;51.134;16.980;2024-01-30T02:12:46;11.70;;;8.20;;
76848;SDS011;65814;51.134;16.980;2024-01-30T02:15:19;11.30;;;6.20;;
76848;SDS011;65814;51.134;16.980;2024-01-30T02:17:47;9.90;;;5.90;;
76848;SDS011;65814;51.134;16.980;2024-01-30T02:20:15;11.60;;;6.60;;
76848;SDS011;65814;51.134;16.980;2024-01-30T02:22:43;15.60;;;8.70;;
76848;SDS011;65814;51.134;16.980;2024-01-30T02:25:11;13.90;;;8.40;;
76848;SDS011;65814;51.134;16.980;2024-01-30T02:27:39;12.20;;;7.50;;
76848;SDS011;65814;51.134;16.980;2024-01-30T02:30:08;15.30;;;10.50;;
76848;SDS011;65814;51.134;16.980;2024-01-30T02:32:36;12.50;;;8.10;;
76848;SDS011;65814;51.134;16.980;2024-01-30T02:35:07;16.20;;;8.30;;
76848;SDS011;65814;51.134;16.980;2024-01-30T02:37:38;14.40;;;8.70;;
76848;SDS011;65814;51.134;16.980;2024-01-30T02:40:06;14.20;;;9.00;;
76848;SDS011;65814;51.134;16.980;2024-01-30T02:42:36;13.50;;;8.40;;
76848;SDS011;65814;51.134;16.980;2024-01-30T02:45:07;15.10;;;8.00;;
76848;SDS011;65814;51.134;16.980;2024-01-30T02:47:36;11.10;;;7.10;;
76848;SDS011;65814;51.134;16.980;2024-01-30T02:50:05;15.50;;;9.20;;
76848;SDS011;65814;51.134;16.980;2024-01-30T02:52:34;14.80;;;8.40;;
76848;SDS011;65814;51.134;16.980;2024-01-30T02:55:02;12.70;;;8.10;;
76848;SDS011;65814;51.134;16.980;2024-01-30T02:57:30;14.00;;;8.40;;
76848;SDS011;65814;51.134;16.980;2024-01-30T02:59:59;13.80;;;8.10;;
76848;SDS011;65814;51.134;16.980;2024-01-30T03:02:28;14.30;;;7.80;;
76848;SDS011;65814;51.134;16.980;2024-01-30T03:04:56;12.70;;;7.10;;
76848;SDS011;65814;51.134;16.980;2024-01-30T03:07:24;13.60;;;7.00;;
76848;SDS011;65814;51.134;16.980;2024-01-30T03:09:52;18.20;;;7.70;;
76848;SDS011;65814;51.134;16.980;2024-01-30T03:12:20;12.60;;;7.50;;
76848;SDS011;65814;51.134;16.980;2024-01-30T03:14:48;14.10;;;7.90;;
76848;SDS011;65814;51.134;16.980;2024-01-30T03:17:17;13.90;;;9.00;;
76848;SDS011;65814;51.134;16.980;2024-01-30T03:19:45;19.80;;;10.10;;
76848;SDS011;65814;51.134;16.980;2024-01-30T03:22:13;14.70;;;10.10;;
76848;SDS011;65814;51.134;16.980;2024-01-30T03:24:41;16.10;;;9.90;;
76848;SDS011;65814;51.134;16.980;2024-01-30T03:27:09;14.60;;;10.90;;
76848;SDS011;65814;51.134;16.980;2024-01-30T03:29:37;14.40;;;9.40;;
76848;SDS011;65814;51.134;16.980;2024-01-30T03:32:08;16.00;;;9.80;;
76848;SDS011;65814;51.134;16.980;2024-01-30T03:34:36;16.10;;;10.00;;
76848;SDS011;65814;51.134;16.980;2024-01-30T03:37:04;14.30;;;8.20;;
76848;SDS011;65814;51.134;16.980;2024-01-30T03:39:32;16.50;;;8.80;;
76848;SDS011;65814;51.134;16.980;2024-01-30T03:42:02;13.70;;;8.50;;
76848;SDS011;65814;51.134;16.980;2024-01-30T03:44:30;13.10;;;8.80;;
76848;SDS011;65814;51.134;16.980;2024-01-30T03:46:58;13.10;;;7.20;;
76848;SDS011;65814;51.134;16.980;2024-01-30T03:49:26;14.50;;;7.90;;
76848;SDS011;65814;51.134;16.980;2024-01-30T03:51:54;13.20;;;7.10;;
76848;SDS011;65814;51.134;16.980;2024-01-30T03:54:24;9.60;;;6.80;;
76848;SDS011;65814;51.134;16.980;2024-01-30T03:56:52;9.30;;;5.90;;
76848;SDS011;65814;51.134;16.980;2024-01-30T03:59:21;12.20;;;6.60;;
76848;SDS011;65814;51.134;16.980;2024-01-30T04:01:52;11.90;;;7.10;;
76848;SDS011;65814;51.134;16.980;2024-01-30T04:04:20;11.30;;;6.40;;
76848;SDS011;65814;51.134;16.980;2024-01-30T04:06:51;10.60;;;6.70;;
76848;SDS011;65814;51.134;16.980;2024-01-30T04:09:19;13.00;;;7.80;;
76848;SDS011;65814;51.134;16.980;2024-01-30T04:11:47;12.50;;;8.80;;
76848;SDS011;65814;51.134;16.980;2024-01-30T04:14:15;12.10;;;8.50;;
76848;SDS011;65814;51.134;16.980;2024-01-30T04:16:43;16.10;;;9.10;;
76848;SDS011;65814;51.134;16.980;2024-01-30T04:19:11;13.00;;;7.40;;
76848;SDS011;65814;51.134;16.980;2024-01-30T04:21:39;11.60;;;6.30;;
76848;SDS011;65814;51.134;16.980;2024-01-30T04:24:10;11.50;;;7.10;;
76848;SDS011;65814;51.134;16.980;2024-01-30T04:26:38;11.80;;;7.70;;
76848;SDS011;65814;51.134;16.980;2024-01-30T04:29:06;11.70;;;6.60;;
76848;SDS011;65814;51.134;16.980;2024-01-30T04:31:36;12.00;;;6.40;;
76848;SDS011;65814;51.134;16.980;2024-01-30T04:34:04;11.20;;;7.00;;
76848;SDS011;65814;51.134;16.980;2024-01-30T04:36:32;12.70;;;7.50;;
76848;SDS011;65814;51.134;16.980;2024-01-30T04:39:00;10.30;;;7.40;;
76848;SDS011;65814;51.134;16.980;2024-01-30T04:41:28;13.20;;;8.00;;
76848;SDS011;65814;51.134;16.980;2024-01-30T04:43:59;16.20;;;7.20;;
76848;SDS011;65814;51.134;16.980;2024-01-30T04:46:27;12.60;;;7.20;;
76848;SDS011;65814;51.134;16.980;2024-01-30T04:48:55;11.50;;;7.30;;
76848;SDS011;65814;51.134;16.980;2024-01-30T04:51:23;11.90;;;6.40;;
76848;SDS011;65814;51.134;16.980;2024-01-30T04:53:52;16.30;;;8.10;;
76848;SDS011;65814;51.134;16.980;2024-01-30T04:56:20;14.50;;;8.10;;
76848;SDS011;65814;51.134;16.980;2024-01-30T04:58:48;12.20;;;8.40;;
76848;SDS011;65814;51.134;16.980;2024-01-30T05:01:18;15.20;;;10.20;;
76848;SDS011;65814;51.134;16.980;2024-01-30T05:03:46;13.00;;;9.80;;
76848;SDS011;65814;51.134;16.980;2024-01-30T05:06:23;16.10;;;11.10;;
76848;SDS011;65814;51.134;16.980;2024-01-30T05:08:52;15.80;;;10.50;;
76848;SDS011;65814;51.134;16.980;2024-01-30T05:11:21;15.70;;;10.20;;
76848;SDS011;65814;51.134;16.980;2024-01-30T05:13:49;17.50;;;11.10;;
76848;SDS011;65814;51.134;16.980;2024-01-30T05:16:20;13.70;;;9.40;;
76848;SDS011;65814;51.134;16.980;2024-01-30T05:18:48;12.70;;;8.80;;
76848;SDS011;65814;51.134;16.980;2024-01-30T05:21:16;14.10;;;8.10;;
76848;SDS011;65814;51.134;16.980;2024-01-30T05:23:44;13.50;;;8.10;;
76848;SDS011;65814;51.134;16.980;2024-01-30T05:26:12;9.90;;;6.90;;
76848;SDS011;65814;51.134;16.980;2024-01-30T05:28:40;13.10;;;7.40;;
76848;SDS011;65814;51.134;16.980;2024-01-30T05:31:08;12.30;;;6.70;;
76848;SDS011;65814;51.134;16.980;2024-01-30T05:33:36;15.10;;;8.20;;
76848;SDS011;65814;51.134;16.980;2024-01-30T05:36:04;16.00;;;7.50;;
76848;SDS011;65814;51.134;16.980;2024-01-30T05:38:32;14.30;;;7.40;;
76848;SDS011;65814;51.134;16.980;2024-01-30T05:41:00;13.80;;;7.90;;
76848;SDS011;65814;51.134;16.980;2024-01-30T05:43:28;15.50;;;8.80;;
76848;SDS011;65814;51.134;16.980;2024-01-30T05:45:56;14.80;;;11.40;;
76848;SDS011;65814;51.134;16.980;2024-01-30T05:48:24;16.40;;;11.60;;
76848;SDS011;65814;51.134;16.980;2024-01-30T05:50:52;18.30;;;11.30;;
76848;SDS011;65814;51.134;16.980;2024-01-30T05:53:20;13.50;;;11.10;;
76848;SDS011;65814;51.134;16.980;2024-01-30T05:55:48;17.00;;;11.80;;
76848;SDS011;65814;51.134;16.980;2024-01-30T05:58:16;15.10;;;10.60;;
76848;SDS011;65814;51.134;16.980;2024-01-30T06:00:44;11.90;;;10.10;;
76848;SDS011;65814;51.134;16.980;2024-01-30T06:03:12;17.60;;;11.00;;
76848;SDS011;65814;51.134;16.980;2024-01-30T06:05:40;35.40;;;18.00;;
76848;SDS011;65814;51.134;16.980;2024-01-30T06:08:08;31.00;;;18.50;;
76848;SDS011;65814;51.134;16.980;2024-01-30T06:10:36;35.60;;;20.10;;
76848;SDS011;65814;51.134;16.980;2024-01-30T06:13:06;46.40;;;24.70;;
76848;SDS011;65814;51.134;16.980;2024-01-30T06:15:34;40.10;;;20.80;;
76848;SDS011;65814;51.134;16.980;2024-01-30T06:18:02;34.80;;;17.30;;
76848;SDS011;65814;51.134;16.980;2024-01-30T06:20:31;27.00;;;15.00;;
76848;SDS011;65814;51.134;16.980;2024-01-30T06:22:59;23.10;;;12.90;;
76848;SDS011;65814;51.134;16.980;2024-01-30T06:25:27;23.40;;;12.60;;
76848;SDS011;65814;51.134;16.980;2024-01-30T06:27:55;21.00;;;11.90;;
76848;SDS011;65814;51.134;16.980;2024-01-30T06:30:23;25.10;;;16.70;;
76848;SDS011;65814;51.134;16.980;2024-01-30T06:32:51;26.90;;;19.20;;
76848;SDS011;65814;51.134;16.980;2024-01-30T06:35:20;37.00;;;22.60;;
76848;SDS011;65814;51.134;16.980;2024-01-30T06:37:49;38.40;;;22.10;;
76848;SDS011;65814;51.134;16.980;2024-01-30T06:40:17;44.90;;;26.30;;
76848;SDS011;65814;51.134;16.980;2024-01-30T06:42:45;43.60;;;24.40;;
76848;SDS011;65814;51.134;16.980;2024-01-30T06:45:13;39.70;;;22.00;;
76848;SDS011;65814;51.134;16.980;2024-01-30T06:47:42;35.00;;;20.20;;
76848;SDS011;65814;51.134;16.980;2024-01-30T06:50:10;23.70;;;15.70;;
76848;SDS011;65814;51.134;16.980;2024-01-30T06:52:38;21.80;;;12.60;;
76848;SDS011;65814;51.134;16.980;2024-01-30T06:55:07;22.70;;;14.50;;
76848;SDS011;65814;51.134;16.980;2024-01-30T06:57:35;20.20;;;13.00;;
76848;SDS011;65814;51.134;16.980;2024-01-30T07:00:03;19.50;;;11.80;;
76848;SDS011;65814;51.134;16.980;2024-01-30T07:02:32;17.70;;;10.40;;
76848;SDS011;65814;51.134;16.980;2024-01-30T07:05:00;15.20;;;8.90;;
76848;SDS011;65814;51.134;16.980;2024-01-30T07:07:28;15.90;;;9.50;;
76848;SDS011;65814;51.134;16.980;2024-01-30T07:09:56;15.40;;;8.60;;
76848;SDS011;65814;51.134;16.980;2024-01-30T07:12:25;14.40;;;7.60;;
76848;SDS011;65814;51.134;16.980;2024-01-30T07:14:54;13.50;;;8.70;;
76848;SDS011;65814;51.134;16.980;2024-01-30T07:17:24;13.80;;;8.40;;
76848;SDS011;65814;51.134;16.980;2024-01-30T07:19:52;13.70;;;7.90;;
76848;SDS011;65814;51.134;16.980;2024-01-30T07:22:20;14.60;;;8.60;;
76848;SDS011;65814;51.134;16.980;2024-01-30T07:24:48;13.20;;;7.80;;
76848;SDS011;65814;51.134;16.980;2024-01-30T07:27:17;10.10;;;7.70;;
76848;SDS011;65814;51.134;16.980;2024-01-30T07:29:46;11.90;;;7.10;;
76848;SDS011;65814;51.134;16.980;2024-01-30T07:32:14;12.60;;;6.80;;
76848;SDS011;65814;51.134;16.980;2024-01-30T07:34:42;10.50;;;7.00;;
76848;SDS011;65814;51.134;16.980;2024-01-30T07:37:29;10.20;;;6.40;;
76848;SDS011;65814;51.134;16.980;2024-01-30T07:39:57;12.60;;;7.90;;
76848;SDS011;65814;51.134;16.980;2024-01-30T07:42:26;13.50;;;7.20;;
76848;SDS011;65814;51.134;16.980;2024-01-30T07:44:54;12.10;;;6.30;;
76848;SDS011;65814;51.134;16.980;2024-01-30T07:47:21;10.10;;;6.80;;
76848;SDS011;65814;51.134;16.980;2024-01-30T07:49:50;11.10;;;6.90;;
76848;SDS011;65814;51.134;16.980;2024-01-30T07:52:19;10.80;;;7.60;;
76848;SDS011;65814;51.134;16.980;2024-01-30T07:54:47;11.20;;;6.40;;
76848;SDS011;65814;51.134;16.980;2024-01-30T07:57:15;12.50;;;7.00;;
76848;SDS011;65814;51.134;16.980;2024-01-30T07:59:43;9.50;;;7.10;;
76848;SDS011;65814;51.134;16.980;2024-01-30T08:02:12;10.20;;;6.40;;
76848;SDS011;65814;51.134;16.980;2024-01-30T08:04:41;13.00;;;7.90;;
76848;SDS011;65814;51.134;16.980;2024-01-30T08:07:09;11.50;;;7.20;;
76848;SDS011;65814;51.134;16.980;2024-01-30T08:09:37;9.30;;;5.90;;
76848;SDS011;65814;51.134;16.980;2024-01-30T08:12:05;9.70;;;6.00;;
76848;SDS011;65814;51.134;16.980;2024-01-30T08:14:33;8.90;;;5.60;;
76848;SDS011;65814;51.134;16.980;2024-01-30T08:17:01;13.10;;;6.50;;
76848;SDS011;65814;51.134;16.980;2024-01-30T08:19:29;8.50;;;6.40;;
76848;SDS011;65814;51.134;16.980;2024-01-30T08:21:57;13.50;;;7.10;;
76848;SDS011;65814;51.134;16.980;2024-01-30T08:24:26;11.70;;;6.50;;
76848;SDS011;65814;51.134;16.980;2024-01-30T08:26:53;9.70;;;6.40;;
76848;SDS011;65814;51.134;16.980;2024-01-30T08:29:21;9.70;;;5.60;;
76848;SDS011;65814;51.134;16.980;2024-01-30T08:31:53;9.00;;;5.80;;
76848;SDS011;65814;51.134;16.980;2024-01-30T08:34:23;11.80;;;6.40;;
76848;SDS011;65814;51.134;16.980;2024-01-30T08:36:51;10.60;;;6.50;;
76848;SDS011;65814;51.134;16.980;2024-01-30T08:39:19;11.30;;;6.00;;
76848;SDS011;65814;51.134;16.980;2024-01-30T08:41:47;12.60;;;6.20;;
76848;SDS011;65814;51.134;16.980;2024-01-30T08:44:16;9.90;;;5.90;;
76848;SDS011;65814;51.134;16.980;2024-01-30T08:46:45;12.40;;;5.80;;
76848;SDS011;65814;51.134;16.980;2024-01-30T08:49:13;8.80;;;5.20;;
76848;SDS011;65814;51.134;16.980;2024-01-30T08:51:44;10.10;;;5.80;;
76848;SDS011;65814;51.134;16.980;2024-01-30T08:54:12;13.00;;;6.30;;
76848;SDS011;65814;51.134;16.980;2024-01-30T08:56:40;7.00;;;5.30;;
76848;SDS011;65814;51.134;16.980;2024-01-30T08:59:08;8.50;;;6.40;;
76848;SDS011;65814;51.134;16.980;2024-01-30T09:01:38;8.40;;;5.10;;
76848;SDS011;65814;51.134;16.980;2024-01-30T09:04:11;7.20;;;5.60;;
76848;SDS011;65814;51.134;16.980;2024-01-30T09:06:39;9.50;;;5.50;;
76848;SDS011;65814;51.134;16.980;2024-01-30T09:09:07;12.40;;;5.60;;
76848;SDS011;65814;51.134;16.980;2024-01-30T09:11:35;9.30;;;5.90;;
76848;SDS011;65814;51.134;16.980;2024-01-30T09:14:03;9.90;;;5.70;;
76848;SDS011;65814;51.134;16.980;2024-01-30T09:16:31;8.20;;;5.30;;
76848;SDS011;65814;51.134;16.980;2024-01-30T09:19:00;10.80;;;5.20;;
76848;SDS011;65814;51.134;16.980;2024-01-30T09:21:28;10.80;;;5.40;;
76848;SDS011;65814;51.134;16.980;2024-01-30T09:24:01;9.50;;;4.70;;
76848;SDS011;65814;51.134;16.980;2024-01-30T09:26:30;6.70;;;4.90;;
76848;SDS011;65814;51.134;16.980;2024-01-30T09:28:58;7.80;;;5.30;;
76848;SDS011;65814;51.134;16.980;2024-01-30T09:31:26;9.90;;;5.70;;
76848;SDS011;65814;51.134;16.980;2024-01-30T09:33:55;9.10;;;5.90;;
76848;SDS011;65814;51.134;16.980;2024-01-30T09:36:23;10.40;;;6.30;;
76848;SDS011;65814;51.134;16.980;2024-01-30T09:38:51;9.20;;;5.50;;
76848;SDS011;65814;51.134;16.980;2024-01-30T09:41:20;9.50;;;5.40;;
76848;SDS011;65814;51.134;16.980;2024-01-30T09:43:52;8.50;;;5.30;;
76848;SDS011;65814;51.134;16.980;2024-01-30T09:46:22;9.50;;;5.30;;
76848;SDS011;65814;51.134;16.980;2024-01-30T09:48:55;10.70;;;5.50;;
76848;SDS011;65814;51.134;16.980;2024-01-30T09:51:25;9.60;;;4.80;;
76848;SDS011;65814;51.134;16.980;2024-01-30T09:53:54;7.60;;;5.00;;
76848;SDS011;65814;51.134;16.980;2024-01-30T09:56:22;8.00;;;5.00;;
76848;SDS011;65814;51.134;16.980;2024-01-30T09:58:50;7.20;;;4.60;;
76848;SDS011;65814;51.134;16.980;2024-01-30T10:01:18;5.70;;;4.00;;
76848;SDS011;65814;51.134;16.980;2024-01-30T10:03:47;7.60;;;4.60;;
76848;SDS011;65814;51.134;16.980;2024-01-30T10:06:18;7.30;;;4.50;;
76848;SDS011;65814;51.134;16.980;2024-01-30T10:08:48;9.70;;;4.60;;
76848;SDS011;65814;51.134;16.980;2024-01-30T10:11:16;7.10;;;4.80;;
76848;SDS011;65814;51.134;16.980;2024-01-30T10:13:44;5.00;;;3.90;;
76848;SDS011;65814;51.134;16.980;2024-01-30T10:16:13;6.80;;;4.50;;
76848;SDS011;65814;51.134;16.980;2024-01-30T10:18:43;7.80;;;4.30;;
76848;SDS011;65814;51.134;16.980;2024-01-30T10:21:12;7.80;;;4.40;;
76848;SDS011;65814;51.134;16.980;2024-01-30T10:23:40;7.10;;;4.20;;
76848;SDS011;65814;51.134;16.980;2024-01-30T10:26:08;8.30;;;3.50;;
76848;SDS011;65814;51.134;16.980;2024-01-30T10:28:36;5.80;;;3.30;;
76848;SDS011;65814;51.134;16.980;2024-01-30T10:31:04;8.80;;;3.90;;
76848;SDS011;65814;51.134;16.980;2024-01-30T10:33:33;8.60;;;4.10;;
76848;SDS011;65814;51.134;16.980;2024-01-30T10:36:03;6.90;;;3.70;;
76848;SDS011;65814;51.134;16.980;2024-01-30T10:38:32;9.00;;;3.70;;
76848;SDS011;65814;51.134;16.980;2024-01-30T10:41:01;4.90;;;3.20;;
76848;SDS011;65814;51.134;16.980;2024-01-30T10:48:42;6.60;;;3.30;;
76848;SDS011;65814;51.134;16.980;2024-01-30T10:51:12;6.80;;;3.30;;
76848;SDS011;65814;51.134;16.980;2024-01-30T10:53:41;6.70;;;3.90;;
76848;SDS011;65814;51.134;16.980;2024-01-30T10:56:11;7.60;;;3.50;;
76848;SDS011;65814;51.134;16.980;2024-01-30T10:58:39;5.70;;;3.50;;
76848;SDS011;65814;51.134;16.980;2024-01-30T11:01:07;6.30;;;3.60;;
76848;SDS011;65814;51.134;16.980;2024-01-30T11:03:36;5.70;;;3.60;;
76848;SDS011;65814;51.134;16.980;2024-01-30T11:06:05;8.00;;;3.70;;
76848;SDS011;65814;51.134;16.980;2024-01-30T11:08:33;5.80;;;3.30;;
76848;SDS011;65814;51.134;16.980;2024-01-30T11:11:02;6.60;;;3.60;;
76848;SDS011;65814;51.134;16.980;2024-01-30T11:13:37;7.00;;;3.90;;
76848;SDS011;65814;51.134;16.980;2024-01-30T11:16:05;12.30;;;4.40;;
76848;SDS011;65814;51.134;16.980;2024-01-30T11:18:35;11.30;;;4.00;;
76848;SDS011;65814;51.134;16.980;2024-01-30T11:21:04;7.90;;;3.70;;
76848;SDS011;65814;51.134;16.980;2024-01-30T11:23:33;6.20;;;3.40;;
76848;SDS011;65814;51.134;16.980;2024-01-30T11:26:04;6.80;;;3.30;;
76848;SDS011;65814;51.134;16.980;2024-01-30T11:28:33;5.50;;;3.30;;
76848;SDS011;65814;51.134;16.980;2024-01-30T11:31:07;5.80;;;3.50;;
76848;SDS011;65814;51.134;16.980;2024-01-30T11:33:36;7.30;;;3.40;;
76848;SDS011;65814;51.134;16.980;2024-01-30T11:36:04;5.60;;;4.00;;
76848;SDS011;65814;51.134;16.980;2024-01-30T11:38:34;7.30;;;4.00;;
76848;SDS011;65814;51.134;16.980;2024-01-30T11:41:03;6.80;;;3.90;;
76848;SDS011;65814;51.134;16.980;2024-01-30T11:43:32;8.20;;;3.90;;
76848;SDS011;65814;51.134;16.980;2024-01-30T11:46:01;7.10;;;4.30;;
76848;SDS011;65814;51.134;16.980;2024-01-30T11:48:30;7.00;;;3.80;;
76848;SDS011;65814;51.134;16.980;2024-01-30T11:50:58;5.10;;;3.40;;
76848;SDS011;65814;51.134;16.980;2024-01-30T11:53:27;6.60;;;3.60;;
76848;SDS011;65814;51.134;16.980;2024-01-30T11:55:55;7.70;;;4.50;;
76848;SDS011;65814;51.134;16.980;2024-01-30T11:58:24;6.80;;;3.90;;
76848;SDS011;65814;51.134;16.980;2024-01-30T12:00:54;10.40;;;3.60;;
76848;SDS011;65814;51.134;16.980;2024-01-30T12:03:24;8.30;;;4.40;;
76848;SDS011;65814;51.134;16.980;2024-01-30T12:05:56;7.20;;;3.70;;
76848;SDS011;65814;51.134;16.980;2024-01-30T12:08:28;5.20;;;4.00;;
76848;SDS011;65814;51.134;16.980;2024-01-30T12:10:57;7.20;;;4.30;;
76848;SDS011;65814;51.134;16.980;2024-01-30T12:13:33;6.70;;;4.30;;
76848;SDS011;65814;51.134;16.980;2024-01-30T12:16:01;7.30;;;4.70;;
76848;SDS011;65814;51.134;16.980;2024-01-30T12:18:29;9.20;;;4.40;;
76848;SDS011;65814;51.134;16.980;2024-01-30T12:20:58;8.10;;;5.30;;
76848;SDS011;65814;51.134;16.980;2024-01-30T12:23:27;6.90;;;4.30;;
76848;SDS011;65814;51.134;16.980;2024-01-30T12:25:56;7.80;;;5.20;;
76848;SDS011;65814;51.134;16.980;2024-01-30T12:28:25;5.70;;;4.40;;
76848;SDS011;65814;51.134;16.980;2024-01-30T12:30:56;7.80;;;4.60;;
76848;SDS011;65814;51.134;16.980;2024-01-30T12:33:28;8.10;;;5.20;;
76848;SDS011;65814;51.134;16.980;2024-01-30T12:35:57;11.20;;;5.50;;
76848;SDS011;65814;51.134;16.980;2024-01-30T12:38:30;8.70;;;5.90;;
76848;SDS011;65814;51.134;16.980;2024-01-30T12:40:59;12.70;;;9.70;;
76848;SDS011;65814;51.134;16.980;2024-01-30T12:43:29;12.50;;;9.20;;
76848;SDS011;65814;51.134;16.980;2024-01-30T12:46:05;10.80;;;8.60;;
76848;SDS011;65814;51.134;16.980;2024-01-30T12:48:34;12.20;;;8.80;;
76848;SDS011;65814;51.134;16.980;2024-01-30T12:51:02;10.60;;;7.80;;
76848;SDS011;65814;51.134;16.980;2024-01-30T12:53:30;11.30;;;7.40;;
76848;SDS011;65814;51.134;16.980;2024-01-30T12:55:58;9.00;;;5.80;;
76848;SDS011;65814;51.134;16.980;2024-01-30T12:58:26;8.40;;;5.60;;
76848;SDS011;65814;51.134;16.980;2024-01-30T13:00:55;5.90;;;4.70;;
76848;SDS011;65814;51.134;16.980;2024-01-30T13:03:26;5.80;;;3.80;;
76848;SDS011;65814;51.134;16.980;2024-01-30T13:05:54;7.30;;;5.20;;
76848;SDS011;65814;51.134;16.980;2024-01-30T13:08:27;6.60;;;3.90;;
76848;SDS011;65814;51.134;16.980;2024-01-30T13:10:56;6.30;;;3.90;;
76848;SDS011;65814;51.134;16.980;2024-01-30T13:13:24;8.30;;;4.40;;
76848;SDS011;65814;51.134;16.980;2024-01-30T13:15:52;7.10;;;4.10;;
76848;SDS011;65814;51.134;16.980;2024-01-30T13:18:20;5.90;;;3.70;;
76848;SDS011;65814;51.134;16.980;2024-01-30T13:20:48;6.90;;;4.00;;
76848;SDS011;65814;51.134;16.980;2024-01-30T13:23:16;6.70;;;4.60;;
76848;SDS011;65814;51.134;16.980;2024-01-30T13:25:44;7.40;;;4.80;;
76848;SDS011;65814;51.134;16.980;2024-01-30T13:28:12;8.20;;;4.40;;
76848;SDS011;65814;51.134;16.980;2024-01-30T13:30:40;9.60;;;4.40;;
76848;SDS011;65814;51.134;16.980;2024-01-30T13:33:08;14.60;;;10.10;;
76848;SDS011;65814;51.134;16.980;2024-01-30T13:35:36;8.50;;;5.00;;
76848;SDS011;65814;51.134;16.980;2024-01-30T13:38:04;9.20;;;5.40;;
76848;SDS011;65814;51.134;16.980;2024-01-30T13:40:32;8.90;;;5.20;;
76848;SDS011;65814;51.134;16.980;2024-01-30T13:43:00;8.80;;;4.30;;
76848;SDS011;65814;51.134;16.980;2024-01-30T13:45:28;6.20;;;4.70;;
76848;SDS011;65814;51.134;16.980;2024-01-30T13:47:56;7.70;;;5.20;;
76848;SDS011;65814;51.134;16.980;2024-01-30T13:50:25;7.80;;;4.80;;
76848;SDS011;65814;51.134;16.980;2024-01-30T13:52:53;6.50;;;4.20;;
76848;SDS011;65814;51.134;16.980;2024-01-30T13:55:22;6.50;;;4.40;;
76848;SDS011;65814;51.134;16.980;2024-01-30T13:57:51;7.60;;;4.20;;
76848;SDS011;65814;51.134;16.980;2024-01-30T14:00:19;8.80;;;4.70;;
76848;SDS011;65814;51.134;16.980;2024-01-30T14:02:50;12.10;;;5.40;;
76848;SDS011;65814;51.134;16.980;2024-01-30T14:05:17;8.30;;;4.40;;
76848;SDS011;65814;51.134;16.980;2024-01-30T14:07:47;7.90;;;5.00;;
76848;SDS011;65814;51.134;16.980;2024-01-30T14:10:15;8.50;;;5.00;;
76848;SDS011;65814;51.134;16.980;2024-01-30T14:12:43;10.60;;;5.30;;
76848;SDS011;65814;51.134;16.980;2024-01-30T14:15:12;10.20;;;5.10;;
76848;SDS011;65814;51.134;16.980;2024-01-30T14:17:54;8.50;;;5.00;;
76848;SDS011;65814;51.134;16.980;2024-01-30T14:20:22;9.70;;;5.00;;
76848;SDS011;65814;51.134;16.980;2024-01-30T14:22:51;7.20;;;4.60;;
76848;SDS011;65814;51.134;16.980;2024-01-30T14:25:21;12.40;;;6.80;;
76848;SDS011;65814;51.134;16.980;2024-01-30T14:27:49;9.40;;;5.50;;
76848;SDS011;65814;51.134;16.980;2024-01-30T14:30:17;8.00;;;5.50;;
76848;SDS011;65814;51.134;16.980;2024-01-30T14:32:45;9.80;;;6.00;;
76848;SDS011;65814;51.134;16.980;2024-01-30T14:35:14;8.40;;;5.00;;
76848;SDS011;65814;51.134;16.980;2024-01-30T14:37:43;6.90;;;4.30;;
76848;SDS011;65814;51.134;16.980;2024-01-30T14:40:11;7.60;;;4.90;;